createdAt,value
2019-04-21T00:04:02.578Z,95.20
2019-04-21T00:08:27.530Z,98.40
2019-04-21T00:12:17.917Z,99.90
2019-04-21T00:16:07.091Z,99.90
2019-04-21T00:20:13.744Z,99.90
2019-04-21T00:24:26.532Z,99.90
2019-04-21T00:28:39.316Z,99.90
2019-04-21T00:32:26.910Z,99.90
2019-04-21T00:36:20.835Z,99.90
2019-04-21T00:40:34.567Z,99.90
2019-04-21T00:44:27.043Z,99.90
2019-04-21T00:48:36.442Z,99.90
2019-04-21T00:57:05.723Z,99.90
2019-04-21T01:01:02.310Z,99.90
2019-04-21T01:05:06.153Z,99.90
2019-04-21T01:09:03.335Z,99.90
2019-04-21T01:13:09.628Z,99.90
2019-04-21T01:17:11.135Z,99.90
2019-04-21T01:20:43.149Z,99.90
2019-04-21T01:24:46.529Z,99.90
2019-04-21T01:28:59.993Z,99.90
2019-04-21T01:33:07.700Z,99.90
2019-04-21T01:36:58.665Z,99.90
2019-04-21T01:41:06.982Z,99.90
2019-04-21T01:45:04.355Z,99.90
2019-04-21T01:48:59.316Z,99.90
2019-04-21T01:53:19.729Z,99.90
2019-04-21T01:57:12.954Z,99.90
2019-04-21T02:01:08.501Z,99.90
2019-04-21T02:05:25.854Z,99.90
2019-04-21T02:09:15.239Z,99.90
2019-04-21T02:13:11.776Z,99.90
2019-04-21T02:17:16.376Z,99.90
2019-04-21T02:21:22.094Z,99.90
2019-04-21T02:25:29.750Z,99.90
2019-04-21T02:29:34.407Z,99.90
2019-04-21T02:41:39.885Z,99.90
2019-04-21T02:45:43.412Z,99.90
2019-04-21T02:50:00.454Z,99.90
2019-04-21T02:54:07.360Z,99.90
2019-04-21T02:57:49.838Z,99.90
2019-04-21T03:01:56.518Z,99.90
2019-04-21T03:05:55.714Z,99.90
2019-04-21T03:09:49.724Z,99.90
2019-04-21T03:13:56.774Z,99.90
2019-04-21T03:17:56.928Z,99.90
2019-04-21T03:22:05.244Z,99.90
2019-04-21T03:26:10.257Z,99.90
2019-04-21T03:38:08.037Z,99.90
2019-04-21T03:42:26.865Z,99.90
2019-04-21T03:46:23.251Z,99.90
2019-04-21T03:54:13.782Z,99.90
2019-04-21T03:58:15.142Z,99.90
2019-04-21T04:18:23.411Z,99.90
2019-04-21T04:22:31.503Z,99.90
2019-04-21T04:26:14.182Z,99.90
2019-04-21T04:34:33.495Z,99.90
2019-04-21T04:38:30.087Z,99.90
2019-04-21T04:42:41.328Z,99.90
2019-04-21T04:46:18.341Z,99.90
2019-04-21T04:50:24.379Z,99.90
2019-04-21T04:54:32.210Z,99.90
2019-04-21T05:02:31.717Z,99.90
2019-04-21T05:14:25.122Z,99.90
2019-04-21T05:18:25.320Z,99.90
2019-04-21T05:22:21.695Z,99.90
2019-04-21T05:26:10.944Z,99.90
2019-04-21T05:30:28.659Z,99.90
2019-04-21T05:34:27.579Z,99.90
2019-04-21T05:38:22.927Z,99.90
2019-04-21T05:42:23.879Z,99.90
2019-04-21T05:46:32.598Z,99.90
2019-04-21T05:50:30.492Z,99.90
2019-04-21T05:58:40.587Z,99.90
2019-04-21T06:02:39.990Z,99.90
2019-04-21T06:06:43.701Z,99.90
2019-04-21T06:10:43.478Z,99.90
2019-04-21T06:14:48.428Z,99.90
2019-04-21T06:18:48.692Z,99.90
2019-04-21T06:22:50.797Z,99.90
2019-04-21T06:27:00.291Z,99.90
2019-04-21T06:31:05.652Z,99.90
2019-04-21T06:35:28.770Z,99.90
2019-04-21T06:39:40.426Z,99.90
2019-04-21T06:43:44.807Z,99.90
2019-04-21T06:47:42.340Z,99.90
2019-04-21T06:51:38.410Z,99.90
2019-04-21T06:55:37.737Z,99.90
2019-04-21T06:59:43.125Z,99.90
2019-04-21T07:04:05.778Z,99.90
2019-04-21T07:08:16.688Z,99.90
2019-04-21T07:12:07.516Z,99.90
2019-04-21T07:16:21.924Z,99.90
2019-04-21T07:20:17.306Z,99.90
2019-04-21T07:24:30.399Z,99.90
2019-04-21T07:28:25.966Z,99.90
2019-04-21T07:32:24.641Z,99.90
2019-04-21T07:36:35.475Z,99.90
2019-04-21T07:40:19.244Z,99.90
2019-04-21T07:44:21.032Z,99.90
2019-04-21T07:48:29.225Z,99.90
2019-04-21T07:52:35.135Z,99.90
2019-04-21T07:56:17.848Z,99.90
2019-04-21T08:00:40.185Z,99.90
2019-04-21T08:08:34.241Z,99.90
2019-04-21T08:12:29.540Z,99.90
2019-04-21T08:16:49.836Z,99.90
2019-04-21T08:20:50.720Z,99.90
2019-04-21T08:24:51.775Z,99.90
2019-04-21T08:28:56.478Z,99.90
2019-04-21T08:36:57.576Z,99.20
2019-04-21T08:41:08.656Z,98.10
2019-04-21T08:45:14.927Z,96.00
2019-04-21T08:49:09.385Z,96.20
2019-04-21T08:53:19.608Z,94.20
2019-04-21T08:57:24.540Z,94.00
2019-04-21T09:01:33.373Z,93.50
2019-04-21T09:05:25.848Z,91.70
2019-04-21T09:09:30.713Z,90.60
2019-04-21T09:13:37.133Z,82.40
2019-04-21T09:17:33.020Z,83.50
2019-04-21T09:21:37.493Z,74.90
2019-04-21T09:25:51.312Z,68.70
2019-04-21T09:29:44.738Z,70.50
2019-04-21T09:33:44.774Z,70.00
2019-04-21T09:37:47.319Z,67.30
2019-04-21T09:41:39.499Z,67.30
2019-04-21T09:45:40.737Z,69.10
2019-04-21T09:49:49.880Z,63.80
2019-04-21T09:54:10.683Z,65.70
2019-04-21T09:58:15.109Z,65.90
2019-04-21T10:02:11.604Z,63.60
2019-04-21T10:06:11.160Z,66.00
2019-04-21T10:10:12.801Z,65.00
2019-04-21T10:14:15.672Z,64.10
2019-04-21T10:18:22.077Z,59.50
2019-04-21T10:22:53.098Z,58.10
2019-04-21T10:26:51.740Z,58.20
2019-04-21T10:30:50.968Z,60.40
2019-04-21T10:34:55.105Z,57.20
2019-04-21T10:38:58.730Z,57.50
2019-04-21T10:42:58.354Z,59.50
2019-04-21T10:46:58.925Z,57.90
2019-04-21T10:51:05.245Z,57.60
2019-04-21T10:55:20.958Z,58.20
2019-04-21T10:59:12.103Z,56.80
2019-04-21T11:03:30.924Z,56.50
2019-04-21T11:08:04.849Z,57.50
2019-04-21T11:12:15.537Z,57.10
2019-04-21T11:16:17.131Z,54.90
2019-04-21T11:20:20.122Z,57.30
2019-04-21T11:24:25.066Z,55.80
2019-04-21T11:28:29.214Z,55.60
2019-04-21T11:32:32.792Z,56.60
2019-04-21T11:36:40.382Z,56.70
2019-04-21T11:40:43.905Z,56.20
2019-04-21T11:44:42.477Z,56.50
2019-04-21T11:48:50.317Z,56.90
2019-04-21T11:52:56.958Z,55.30
2019-04-21T11:57:07.983Z,55.20
2019-04-21T12:01:05.596Z,55.60
2019-04-21T12:05:35.313Z,56.10
2019-04-21T12:09:41.593Z,55.30
2019-04-21T12:13:40.377Z,54.00
2019-04-21T12:17:39.804Z,53.90
2019-04-21T12:21:53.294Z,55.10
2019-04-21T12:25:45.291Z,55.00
2019-04-21T12:29:46.183Z,53.00
2019-04-21T12:33:54.002Z,54.20
2019-04-21T12:37:53.172Z,54.40
2019-04-21T12:41:51.978Z,53.70
2019-04-21T12:45:58.107Z,53.60
2019-04-21T12:50:00.961Z,53.20
2019-04-21T12:53:59.589Z,53.30
2019-04-21T12:58:01.542Z,53.40
2019-04-21T13:02:01.065Z,53.50
2019-04-21T13:06:03.521Z,53.00
2019-04-21T13:10:04.371Z,52.50
2019-04-21T13:14:04.065Z,52.80
2019-04-21T13:18:02.818Z,53.10
2019-04-21T13:22:03.864Z,53.20
2019-04-21T13:26:04.361Z,52.70
2019-04-21T13:30:04.261Z,51.80
2019-04-21T13:34:04.078Z,52.30
2019-04-21T13:38:20.070Z,51.90
2019-04-21T13:42:24.086Z,51.50
2019-04-21T13:46:17.680Z,52.00
2019-04-21T13:50:23.682Z,51.90
2019-04-21T13:54:29.629Z,52.80
2019-04-21T13:58:36.194Z,52.00
2019-04-21T14:02:36.657Z,51.20
2019-04-21T14:06:36.359Z,51.40
2019-04-21T14:10:35.561Z,52.60
2019-04-21T14:14:40.260Z,52.50
2019-04-21T14:18:34.460Z,51.70
2019-04-21T14:22:35.983Z,51.70
2019-04-21T14:26:40.299Z,51.50
2019-04-21T14:30:46.025Z,51.70
2019-04-21T14:34:50.204Z,52.10
2019-04-21T14:38:52.464Z,52.20
2019-04-21T14:43:02.496Z,50.00
2019-04-21T14:51:31.587Z,40.60
2019-04-21T14:55:33.173Z,39.40
2019-04-21T14:59:33.127Z,38.20
2019-04-21T15:03:32.207Z,39.20
2019-04-21T15:11:49.918Z,36.10
2019-04-21T15:16:02.747Z,35.20
2019-04-21T15:20:10.506Z,38.20
2019-04-21T15:24:09.557Z,34.60
2019-04-21T15:28:09.735Z,37.30
2019-04-21T15:32:10.646Z,36.50
2019-04-21T15:36:09.239Z,34.10
2019-04-21T15:40:21.114Z,35.90
2019-04-21T15:44:09.875Z,36.20
2019-04-21T15:48:09.853Z,39.60
2019-04-21T15:52:09.772Z,42.00
2019-04-21T15:56:11.042Z,44.10
2019-04-21T16:00:28.744Z,45.40
2019-04-21T16:04:28.701Z,45.70
2019-04-21T16:08:37.399Z,46.50
2019-04-21T16:12:40.050Z,46.40
2019-04-21T16:16:41.285Z,46.90
2019-04-21T16:20:39.994Z,47.50
2019-04-21T16:25:06.601Z,47.60
2019-04-21T16:29:07.004Z,47.80
2019-04-21T16:33:06.078Z,47.50
2019-04-21T16:37:13.904Z,47.60
2019-04-21T16:41:20.316Z,48.40
2019-04-21T16:45:26.212Z,48.40
2019-04-21T16:49:25.447Z,48.60
2019-04-21T16:53:43.939Z,49.20
2019-04-21T16:57:41.913Z,49.40
2019-04-21T17:01:52.456Z,49.90
2019-04-21T17:05:54.386Z,49.70
2019-04-21T17:10:04.515Z,50.60
2019-04-21T17:14:05.678Z,50.70
2019-04-21T17:18:23.178Z,51.10
2019-04-21T17:22:10.212Z,51.50
2019-04-21T17:26:17.068Z,51.70
2019-04-21T17:30:20.447Z,52.70
2019-04-21T17:34:22.991Z,52.20
2019-04-21T17:38:34.156Z,52.40
2019-04-21T17:42:42.966Z,53.20
2019-04-21T17:46:40.758Z,54.00
2019-04-21T17:50:47.739Z,54.70
2019-04-21T17:55:07.571Z,55.00
2019-04-21T17:59:23.643Z,55.30
2019-04-21T18:03:25.152Z,55.60
2019-04-21T18:07:27.351Z,56.30
2019-04-21T18:11:22.772Z,56.40
2019-04-21T18:15:29.058Z,56.80
2019-04-21T18:19:13.056Z,57.10
2019-04-21T18:23:18.660Z,57.60
2019-04-21T18:27:17.603Z,58.00
2019-04-21T18:31:20.877Z,58.50
2019-04-21T18:35:35.765Z,58.90
2019-04-21T18:39:53.633Z,59.80
2019-04-21T18:44:15.557Z,60.30
2019-04-21T18:48:06.702Z,60.40
2019-04-21T18:52:20.801Z,61.30
2019-04-21T18:56:16.936Z,62.10
2019-04-21T19:00:28.846Z,61.70
2019-04-21T19:04:26.496Z,61.90
2019-04-21T19:08:46.565Z,63.00
2019-04-21T19:20:53.847Z,62.40
2019-04-21T19:24:59.810Z,62.90
2019-04-21T19:29:10.017Z,63.70
2019-04-21T19:32:58.011Z,65.10
2019-04-21T19:36:51.310Z,67.70
2019-04-21T19:41:18.804Z,67.50
2019-04-21T19:45:16.475Z,68.30
2019-04-21T19:49:36.785Z,70.70
2019-04-21T19:53:25.460Z,71.50
2019-04-21T19:57:16.710Z,71.80
2019-04-21T20:01:19.280Z,73.00
2019-04-21T20:05:32.739Z,74.70
2019-04-21T20:09:40.168Z,74.50
2019-04-21T20:13:52.740Z,74.30
2019-04-21T20:17:38.770Z,74.10
2019-04-21T20:21:22.941Z,75.60
2019-04-21T20:25:27.182Z,77.30
2019-04-21T20:34:07.866Z,80.20
2019-04-21T20:38:09.345Z,82.10
2019-04-21T20:42:03.848Z,85.90
2019-04-21T20:46:17.208Z,90.30
2019-04-21T20:50:11.701Z,92.30
2019-04-21T20:54:08.603Z,95.60
2019-04-21T20:58:15.487Z,97.90
2019-04-21T21:02:17.670Z,98.80
2019-04-21T21:06:20.485Z,99.90
2019-04-21T21:10:20.918Z,99.90
2019-04-21T21:14:23.471Z,99.90
2019-04-21T21:22:22.687Z,99.90
2019-04-21T21:26:45.766Z,99.90
2019-04-21T21:30:53.016Z,99.90
2019-04-21T21:34:57.207Z,99.90
2019-04-21T21:38:55.885Z,99.90
2019-04-21T21:42:43.484Z,99.90
2019-04-21T21:46:58.903Z,99.90
2019-04-21T21:50:57.638Z,99.90
2019-04-21T21:55:01.469Z,99.90
2019-04-21T21:59:10.594Z,99.90
2019-04-21T22:03:14.762Z,99.90
2019-04-21T22:07:12.423Z,99.90
2019-04-21T22:11:10.955Z,99.90
2019-04-21T22:15:17.353Z,99.90
2019-04-21T22:19:29.983Z,99.90
2019-04-21T22:23:24.121Z,99.90
2019-04-21T22:27:13.174Z,99.90
2019-04-21T22:31:20.712Z,99.90
2019-04-21T22:35:26.058Z,99.90
2019-04-21T22:39:39.084Z,99.90
2019-04-21T22:43:29.518Z,99.90
2019-04-21T22:47:31.641Z,99.90
2019-04-21T22:51:53.791Z,99.90
2019-04-21T22:55:57.249Z,99.90
2019-04-21T23:00:07.129Z,99.90
2019-04-21T23:04:08.925Z,99.90
2019-04-21T23:08:09.375Z,99.90
2019-04-21T23:12:23.146Z,99.90
2019-04-21T23:16:13.922Z,99.90
2019-04-21T23:20:53.640Z,99.90
2019-04-21T23:24:59.217Z,99.90
2019-04-21T23:28:57.276Z,99.90
2019-04-21T23:32:56.590Z,99.90
2019-04-21T23:36:54.355Z,99.90
2019-04-21T23:40:50.286Z,99.90
2019-04-21T23:44:49.096Z,99.90
2019-04-21T23:49:04.217Z,99.90
2019-04-21T23:52:49.836Z,99.90
2019-04-21T23:56:49.494Z,99.90
